Time;durP1;ratioP1;P1;durP2;ratioP2;P2;SDS_P1;SDS_P2;PMS_P1;PMS_P2;Temp;Humidity;BMP_temperature;BMP_pressure;BME280_temperature;BME280_humidity;BME280_pressure;Samples;Min_cycle;Max_cycle;Signal;HPM_P1;HPM_P2
2023/12/23 00:01:37;;;;;;;;;;;11.20;86.90;;;;;;4975401;28;20374;-78
2023/12/23 00:04:02;;;;;;;;;;;11.10;86.80;;;;;;4975404;28;19917;-78
2023/12/23 00:06:28;;;;;;;;;;;11.20;87.40;;;;;;4992715;28;20001;-78
2023/12/23 00:08:53;;;;;;;;;;;11.10;86.80;;;;;;4975176;28;19910;-78
2023/12/23 00:11:19;;;;;;;;;;;11.10;86.90;;;;;;4975407;28;20531;-79
2023/12/23 00:13:44;;;;;;;;;;;11.10;86.70;;;;;;4974999;28;19953;-78
2023/12/23 00:16:09;;;;;;;;;;;11.20;86.80;;;;;;4974782;28;20004;-78
2023/12/23 00:18:35;;;;;;;;;;;11.10;86.80;;;;;;4975176;28;19971;-78
2023/12/23 00:21:00;;;;;;;;;;;11.20;86.70;;;;;;4974914;28;19964;-78
2023/12/23 00:23:26;;;;;;;;;;;11.10;86.70;;;;;;4974952;28;20458;-78
2023/12/23 00:25:51;;;;;;;;;;;11.10;86.70;;;;;;4974756;28;20016;-77
2023/12/23 00:28:16;;;;;;;;;;;11.10;86.70;;;;;;4974801;28;19953;-78
2023/12/23 00:30:42;;;;;;;;;;;11.10;86.70;;;;;;4992455;28;20056;-78
2023/12/23 00:33:08;;;;;;;;;;;11.10;86.70;;;;;;4974815;28;19964;-78
2023/12/23 00:35:33;;;;;;;;;;;11.10;86.80;;;;;;4992176;28;20382;-78
2023/12/23 00:37:59;;;;;;;;;;;11.10;86.80;;;;;;4991873;28;20340;-78
2023/12/23 00:40:25;;;;;;;;;;;11.10;86.80;;;;;;4974858;28;20566;-78
2023/12/23 00:42:50;;;;;;;;;;;11.10;86.70;;;;;;4974686;28;20048;-78
2023/12/23 00:45:16;;;;;;;;;;;11.20;86.70;;;;;;4974549;28;19988;-78
2023/12/23 00:47:41;;;;;;;;;;;11.10;86.70;;;;;;4974169;28;19913;-78
2023/12/23 00:50:07;;;;;;;;;;;11.10;86.70;;;;;;4965589;28;19917;-78
2023/12/23 00:52:32;;;;;;;;;;;11.10;86.70;;;;;;4972361;28;19964;-78
2023/12/23 00:54:58;;;;;;;;;;;11.10;86.70;;;;;;4972294;28;19925;-78
2023/12/23 00:57:23;;;;;;;;;;;11.10;86.60;;;;;;4971944;28;19910;-78
2023/12/23 00:59:48;;;;;;;;;;;11.10;86.60;;;;;;4955008;28;20012;-78
2023/12/23 01:02:14;;;;;;;;;;;11.20;86.60;;;;;;4955080;28;19910;-78
2023/12/23 01:04:40;;;;;;;;;;;11.10;86.60;;;;;;4955073;28;19917;-78
2023/12/23 01:07:05;;;;;;;;;;;11.10;86.50;;;;;;4971398;28;19911;-78
2023/12/23 01:09:31;;;;;;;;;;;11.10;86.50;;;;;;4954925;28;19914;-78
2023/12/23 01:11:56;;;;;;;;;;;11.10;86.60;;;;;;4955046;28;20301;-78
2023/12/23 01:14:22;;;;;;;;;;;11.10;86.60;;;;;;4971938;28;20017;-77
2023/12/23 01:16:47;;;;;;;;;;;11.10;86.60;;;;;;4971913;28;19910;-78
2023/12/23 01:19:13;;;;;;;;;;;11.10;86.50;;;;;;4954745;28;20339;-78
2023/12/23 01:21:38;;;;;;;;;;;11.10;86.60;;;;;;4971872;28;20020;-78
2023/12/23 01:24:04;;;;;;;;;;;11.10;86.60;;;;;;4954627;28;20348;-78
2023/12/23 01:26:30;;;;;;;;;;;11.10;86.60;;;;;;4954424;28;19914;-78
2023/12/23 01:29:00;;;;;;;;;;;11.10;86.50;;;;;;4954617;28;19910;-78
2023/12/23 01:31:28;;;;;;;;;;;11.10;86.50;;;;;;4954646;28;19914;-77
2023/12/23 01:33:54;;;;;;;;;;;11.10;86.60;;;;;;4972265;28;19918;-78
2023/12/23 01:36:19;;;;;;;;;;;11.10;86.50;;;;;;4954288;28;19914;-78
2023/12/23 01:38:45;;;;;;;;;;;11.10;86.60;;;;;;4954460;28;19997;-78
2023/12/23 01:41:10;;;;;;;;;;;11.10;86.60;;;;;;4954439;28;20387;-78
2023/12/23 01:43:36;;;;;;;;;;;11.10;86.50;;;;;;4954701;28;19916;-78
2023/12/23 01:46:01;;;;;;;;;;;11.10;86.60;;;;;;4954243;28;19941;-77
2023/12/23 01:48:27;;;;;;;;;;;11.10;86.50;;;;;;4954422;28;20001;-78
2023/12/23 01:50:54;;;;;;;;;;;11.10;86.50;;;;;;4954637;28;19914;-78
2023/12/23 01:53:19;;;;;;;;;;;11.10;86.50;;;;;;4954414;28;19910;-77
2023/12/23 01:55:45;;;;;;;;;;;11.10;86.40;;;;;;4954224;28;19969;-77
2023/12/23 01:58:10;;;;;;;;;;;11.10;86.50;;;;;;4954119;28;20354;-77
2023/12/23 02:00:36;;;;;;;;;;;11.10;86.50;;;;;;4954085;28;20374;-78
2023/12/23 02:03:02;;;;;;;;;;;11.10;86.50;;;;;;4954187;28;20016;-78
2023/12/23 02:05:28;;;;;;;;;;;11.10;86.60;;;;;;4971599;28;19914;-78
2023/12/23 02:07:53;;;;;;;;;;;11.10;86.60;;;;;;4954291;28;19917;-78
2023/12/23 02:10:19;;;;;;;;;;;11.10;86.50;;;;;;4954520;28;19910;-78
2023/12/23 02:12:56;;;;;;;;;;;11.10;86.50;;;;;;4954401;28;19911;-78
2023/12/23 02:15:23;;;;;;;;;;;11.10;86.50;;;;;;4954167;28;19914;-78
2023/12/23 02:17:57;;;;;;;;;;;11.10;86.50;;;;;;4971689;28;19941;-78
2023/12/23 02:20:22;;;;;;;;;;;11.10;86.50;;;;;;4975258;28;19969;-78
2023/12/23 02:22:48;;;;;;;;;;;11.10;86.60;;;;;;4957980;28;20337;-78
2023/12/23 02:25:13;;;;;;;;;;;11.10;86.40;;;;;;4975177;28;19918;-78
2023/12/23 02:27:44;;;;;;;;;;;11.10;86.50;;;;;;4957637;28;19914;-78
2023/12/23 02:30:12;;;;;;;;;;;11.10;86.60;;;;;;4957719;28;19921;-78
2023/12/23 02:32:39;;;;;;;;;;;11.10;86.40;;;;;;4957736;28;19917;-78
2023/12/23 02:35:05;;;;;;;;;;;11.00;86.30;;;;;;4957607;28;20345;-78
2023/12/23 02:37:30;;;;;;;;;;;11.10;86.50;;;;;;4957206;28;20290;-78
2023/12/23 02:39:56;;;;;;;;;;;11.10;86.40;;;;;;4957810;28;19973;-78
2023/12/23 02:42:21;;;;;;;;;;;11.10;86.40;;;;;;4957468;28;19925;-78
2023/12/23 02:44:47;;;;;;;;;;;11.10;86.40;;;;;;4957571;28;20013;-78
2023/12/23 02:47:12;;;;;;;;;;;11.00;86.30;;;;;;4957091;28;19918;-78
2023/12/23 02:49:37;;;;;;;;;;;11.10;86.40;;;;;;4974742;28;20318;-78
2023/12/23 02:52:03;;;;;;;;;;;11.10;86.90;;;;;;4974686;28;19940;-78
2023/12/23 02:54:28;;;;;;;;;;;11.10;86.40;;;;;;4957160;28;19925;-78
2023/12/23 02:56:54;;;;;;;;;;;11.10;86.50;;;;;;4957193;28;20061;-78
2023/12/23 02:59:19;;;;;;;;;;;11.10;86.50;;;;;;4974598;28;19918;-78
2023/12/23 03:01:45;;;;;;;;;;;11.10;86.50;;;;;;4957216;28;19916;-78
2023/12/23 03:04:10;;;;;;;;;;;11.10;86.40;;;;;;4974389;28;20000;-78
2023/12/23 03:06:35;;;;;;;;;;;11.10;86.50;;;;;;4956850;28;20000;-78
2023/12/23 03:09:01;;;;;;;;;;;11.10;86.50;;;;;;4974693;28;20305;-78
2023/12/23 03:11:26;;;;;;;;;;;11.10;86.50;;;;;;4953253;28;19922;-78
2023/12/23 03:13:52;;;;;;;;;;;11.10;86.50;;;;;;4970518;28;20229;-78
2023/12/23 03:16:18;;;;;;;;;;;11.00;86.40;;;;;;4956291;28;19921;-78
2023/12/23 03:18:46;;;;;;;;;;;11.10;86.40;;;;;;4956874;28;19992;-78
2023/12/23 03:21:12;;;;;;;;;;;11.10;86.40;;;;;;4956817;28;19914;-78
2023/12/23 03:23:37;;;;;;;;;;;11.10;86.50;;;;;;4956752;28;19914;-78
2023/12/23 03:26:03;;;;;;;;;;;11.00;86.40;;;;;;4955856;28;19918;-78
2023/12/23 03:28:28;;;;;;;;;;;11.10;86.40;;;;;;4974092;28;20370;-78
2023/12/23 03:30:53;;;;;;;;;;;11.00;86.40;;;;;;4956337;28;19914;-78
2023/12/23 03:33:19;;;;;;;;;;;11.10;86.50;;;;;;4956718;28;19938;-78
2023/12/23 03:35:44;;;;;;;;;;;11.10;86.40;;;;;;4956204;28;20488;-77
2023/12/23 03:38:10;;;;;;;;;;;11.10;86.40;;;;;;4956554;28;20298;-78
2023/12/23 03:40:35;;;;;;;;;;;11.10;86.40;;;;;;4956403;28;19921;-78
2023/12/23 03:43:01;;;;;;;;;;;11.10;86.40;;;;;;4956426;28;19918;-78
2023/12/23 03:45:26;;;;;;;;;;;11.10;86.40;;;;;;4956453;28;19914;-78
2023/12/23 03:47:51;;;;;;;;;;;11.10;86.50;;;;;;4973402;28;19911;-78
2023/12/23 03:50:17;;;;;;;;;;;11.10;86.40;;;;;;4956286;28;20517;-78
2023/12/23 03:52:42;;;;;;;;;;;11.10;86.90;;;;;;4956303;28;19914;-78
2023/12/23 03:55:09;;;;;;;;;;;11.10;86.40;;;;;;4956322;28;19920;-78
2023/12/23 03:57:35;;;;;;;;;;;11.00;86.30;;;;;;4955619;28;19910;-78
2023/12/23 04:00:00;;;;;;;;;;;11.10;86.40;;;;;;4973310;28;19922;-78
2023/12/23 04:02:26;;;;;;;;;;;11.10;86.40;;;;;;4956208;28;19921;-78
2023/12/23 04:04:51;;;;;;;;;;;11.10;86.40;;;;;;4956088;28;19911;-78
2023/12/23 04:07:16;;;;;;;;;;;11.00;86.40;;;;;;4955646;28;19914;-78
2023/12/23 04:09:42;;;;;;;;;;;11.10;86.40;;;;;;4955818;28;19910;-78
2023/12/23 04:12:09;;;;;;;;;;;11.10;86.50;;;;;;4955947;28;20285;-77
2023/12/23 04:14:37;;;;;;;;;;;11.10;86.50;;;;;;4955778;28;19918;-78
2023/12/23 04:17:03;;;;;;;;;;;11.10;86.50;;;;;;4955551;28;19946;-78
2023/12/23 04:19:28;;;;;;;;;;;11.00;86.40;;;;;;4955798;28;20375;-78
2023/12/23 04:21:53;;;;;;;;;;;11.10;86.50;;;;;;4955580;28;19914;-76
2023/12/23 04:24:20;;;;;;;;;;;11.10;86.50;;;;;;4955743;28;19921;-78
2023/12/23 04:26:45;;;;;;;;;;;11.00;86.50;;;;;;4955550;28;19950;-78
2023/12/23 04:29:11;;;;;;;;;;;11.10;86.50;;;;;;4972996;28;19956;-78
2023/12/23 04:31:36;;;;;;;;;;;11.00;86.40;;;;;;4955383;28;19968;-77
2023/12/23 04:34:02;;;;;;;;;;;11.00;86.50;;;;;;4955395;28;19914;-78
2023/12/23 04:36:27;;;;;;;;;;;11.10;86.50;;;;;;4972669;28;20004;-78
2023/12/23 04:38:54;;;;;;;;;;;11.10;86.40;;;;;;4955036;28;22280;-76
2023/12/23 04:41:20;;;;;;;;;;;11.10;86.50;;;;;;4954733;28;19910;-78
2023/12/23 04:43:45;;;;;;;;;;;11.10;86.50;;;;;;4955519;28;19911;-79
2023/12/23 04:46:11;;;;;;;;;;;11.10;86.50;;;;;;4954977;28;20340;-77
2023/12/23 04:48:36;;;;;;;;;;;11.10;86.50;;;;;;4955324;28;19918;-76
2023/12/23 04:51:02;;;;;;;;;;;11.00;86.30;;;;;;4955398;28;19945;-77
2023/12/23 04:53:27;;;;;;;;;;;11.10;86.50;;;;;;4972516;28;19993;-78
2023/12/23 04:55:53;;;;;;;;;;;11.10;86.50;;;;;;4954871;28;19977;-76
2023/12/23 04:58:18;;;;;;;;;;;11.10;86.50;;;;;;4955225;28;19910;-78
2023/12/23 05:00:44;;;;;;;;;;;11.00;86.80;;;;;;4972322;28;20367;-78
2023/12/23 05:03:09;;;;;;;;;;;11.10;86.60;;;;;;4972444;28;19914;-78
2023/12/23 05:05:34;;;;;;;;;;;11.10;86.50;;;;;;4954985;28;19925;-78
2023/12/23 05:08:00;;;;;;;;;;;11.10;86.50;;;;;;4971974;28;19914;-78
2023/12/23 05:10:25;;;;;;;;;;;11.10;86.50;;;;;;4952542;28;19922;-77
2023/12/23 05:12:51;;;;;;;;;;;11.10;86.60;;;;;;4951295;28;19910;-78
2023/12/23 05:15:16;;;;;;;;;;;11.00;86.50;;;;;;4972402;28;19933;-78
2023/12/23 05:17:41;;;;;;;;;;;11.10;86.60;;;;;;4954461;28;20333;-77
2023/12/23 05:20:07;;;;;;;;;;;11.10;86.40;;;;;;4953726;28;19918;-76
2023/12/23 05:22:33;;;;;;;;;;;11.00;86.40;;;;;;4971520;28;20286;-78
2023/12/23 05:24:58;;;;;;;;;;;11.00;86.50;;;;;;4971894;28;19918;-78
2023/12/23 05:27:24;;;;;;;;;;;11.10;86.50;;;;;;4954438;28;19910;-78
2023/12/23 05:29:50;;;;;;;;;;;11.10;86.60;;;;;;4954600;28;19910;-78
2023/12/23 05:32:15;;;;;;;;;;;11.10;86.60;;;;;;4971997;28;19941;-78
2023/12/23 05:34:41;;;;;;;;;;;11.10;86.50;;;;;;4954442;28;20401;-78
2023/12/23 05:37:06;;;;;;;;;;;11.10;86.60;;;;;;4954453;28;20382;-77
2023/12/23 05:39:31;;;;;;;;;;;11.00;86.40;;;;;;4954477;28;19933;-78
2023/12/23 05:41:58;;;;;;;;;;;11.10;86.50;;;;;;4954580;28;20387;-78
2023/12/23 05:44:23;;;;;;;;;;;11.10;86.50;;;;;;4971969;28;19911;-78
2023/12/23 05:46:48;;;;;;;;;;;11.10;86.50;;;;;;4971653;28;19921;-77
2023/12/23 05:49:14;;;;;;;;;;;11.10;86.50;;;;;;4954564;28;19910;-79
2023/12/23 05:51:39;;;;;;;;;;;11.10;86.50;;;;;;4954057;28;19910;-78
2023/12/23 05:54:05;;;;;;;;;;;11.10;86.50;;;;;;4954013;28;20268;-79
2023/12/23 05:56:30;;;;;;;;;;;11.10;86.60;;;;;;4969702;28;20805;-78
2023/12/23 05:58:56;;;;;;;;;;;11.00;86.60;;;;;;4974965;28;20406;-79
2023/12/23 06:01:22;;;;;;;;;;;11.00;86.50;;;;;;4959677;28;20005;-79
2023/12/23 06:03:47;;;;;;;;;;;11.00;86.50;;;;;;4963698;28;20334;-80
2023/12/23 06:06:13;;;;;;;;;;;11.10;86.60;;;;;;4977660;28;19910;-79
2023/12/23 06:08:38;;;;;;;;;;;11.00;86.50;;;;;;4996163;28;19917;-79
2023/12/23 06:11:04;;;;;;;;;;;11.00;86.50;;;;;;4995299;28;19914;-79
2023/12/23 06:13:29;;;;;;;;;;;11.10;86.50;;;;;;4978048;28;20271;-79
2023/12/23 06:15:54;;;;;;;;;;;11.00;86.50;;;;;;4977347;28;19944;-79
2023/12/23 06:34:51;;;;;;;;;;;11.00;86.50;;;;;;4974139;28;19929;-79
2023/12/23 06:44:15;;;;;;;;;;;11.00;86.50;;;;;;4892561;29;19923;-78
2023/12/23 06:49:45;;;;;;;;;;;;;;;;;;;;;
2023/12/23 07:05:02;;;;;;;;;;;11.00;86.60;;;;;;4909094;29;19926;-78
2023/12/23 07:07:35;;;;;;;;;;;11.10;86.70;;;;;;4910129;29;19917;-78
2023/12/23 07:10:01;;;;;;;;;;;11.00;86.60;;;;;;4931317;29;19910;-78
2023/12/23 07:12:47;;;;;;;;;;;11.30;86.70;;;;;;4977103;28;20341;-76
2023/12/23 07:18:31;;;;;;;;;;;11.00;86.60;;;;;;4942024;29;19981;-77
2023/12/23 07:21:00;;;;;;;;;;;11.00;86.70;;;;;;4951921;29;19938;-77
2023/12/23 07:23:25;;;;;;;;;;;11.10;86.60;;;;;;4986192;28;19983;-79
2023/12/23 07:25:51;;;;;;;;;;;11.00;86.60;;;;;;4984444;28;20378;-77
2023/12/23 07:28:17;;;;;;;;;;;11.10;86.60;;;;;;4989873;28;19909;-78
2023/12/23 07:30:44;;;;;;;;;;;11.00;86.70;;;;;;4990285;28;19971;-77
2023/12/23 07:33:13;;;;;;;;;;;11.00;86.60;;;;;;5008388;28;19914;-78
2023/12/23 07:35:38;;;;;;;;;;;11.00;86.70;;;;;;4989580;28;20004;-78
2023/12/23 07:38:04;;;;;;;;;;;11.00;86.70;;;;;;4991118;28;20428;-78
2023/12/23 07:40:29;;;;;;;;;;;11.10;86.80;;;;;;4991073;28;20332;-77
2023/12/23 07:42:55;;;;;;;;;;;11.00;86.80;;;;;;4990976;28;19992;-76
2023/12/23 07:45:22;;;;;;;;;;;11.10;86.80;;;;;;5008278;28;19940;-79
2023/12/23 07:47:49;;;;;;;;;;;11.10;86.90;;;;;;4991472;28;19914;-78
2023/12/23 07:50:14;;;;;;;;;;;11.10;86.80;;;;;;5009549;28;19986;-77
2023/12/23 07:52:39;;;;;;;;;;;11.00;86.70;;;;;;4992143;28;19913;-78
2023/12/23 07:55:05;;;;;;;;;;;11.00;86.80;;;;;;4991483;28;19913;-77
2023/12/23 07:57:32;;;;;;;;;;;11.00;86.90;;;;;;5009727;28;20273;-77
2023/12/23 07:59:58;;;;;;;;;;;11.00;86.80;;;;;;4994897;28;19913;-79
2023/12/23 08:02:23;;;;;;;;;;;11.10;86.90;;;;;;4995804;28;19964;-80
2023/12/23 08:04:48;;;;;;;;;;;11.00;86.90;;;;;;4996034;28;19910;-79
2023/12/23 08:07:14;;;;;;;;;;;11.10;86.90;;;;;;4994010;28;19916;-78
2023/12/23 08:09:39;;;;;;;;;;;11.00;86.90;;;;;;4997095;28;19916;-78
2023/12/23 08:12:06;;;;;;;;;;;11.00;87.00;;;;;;4997773;28;20254;-79
2023/12/23 08:14:31;;;;;;;;;;;11.10;87.00;;;;;;4991881;28;19953;-78
2023/12/23 08:16:57;;;;;;;;;;;11.00;87.00;;;;;;4998399;28;19925;-80
2023/12/23 08:19:22;;;;;;;;;;;11.00;87.00;;;;;;4995798;28;19920;-80
2023/12/23 08:21:47;;;;;;;;;;;11.10;87.20;;;;;;4991240;28;19909;-79
2023/12/23 08:24:13;;;;;;;;;;;11.10;87.30;;;;;;4995461;28;20324;-81
2023/12/23 08:26:39;;;;;;;;;;;11.10;87.30;;;;;;4995397;28;20297;-80
2023/12/23 08:29:04;;;;;;;;;;;11.10;87.30;;;;;;4995557;28;19913;-80
2023/12/23 08:31:30;;;;;;;;;;;11.10;87.50;;;;;;4995711;28;19913;-81
2023/12/23 08:33:55;;;;;;;;;;;11.20;87.70;;;;;;4995411;28;19917;-81
2023/12/23 08:36:21;;;;;;;;;;;11.20;87.60;;;;;;4995267;28;19914;-81
2023/12/23 08:38:46;;;;;;;;;;;11.20;87.50;;;;;;5013221;28;19918;-81
2023/12/23 08:41:12;;;;;;;;;;;11.20;87.70;;;;;;4996224;28;20352;-81
2023/12/23 08:43:37;;;;;;;;;;;11.20;88.20;;;;;;4995525;28;19914;-80
2023/12/23 08:46:03;;;;;;;;;;;11.20;87.80;;;;;;4995182;28;19936;-81
2023/12/23 08:48:28;;;;;;;;;;;11.20;87.50;;;;;;5013011;28;19948;-82
2023/12/23 08:50:54;;;;;;;;;;;11.10;87.90;;;;;;4995431;28;19910;-80
2023/12/23 08:53:19;;;;;;;;;;;11.30;88.00;;;;;;4995217;28;19910;-81
2023/12/23 08:55:44;;;;;;;;;;;11.20;88.00;;;;;;4994918;28;20033;-80
2023/12/23 08:58:11;;;;;;;;;;;11.30;87.90;;;;;;4995100;28;20382;-81
2023/12/23 09:00:37;;;;;;;;;;;11.20;87.90;;;;;;4995237;28;19916;-80
2023/12/23 09:03:03;;;;;;;;;;;11.30;88.10;;;;;;4995235;28;19909;-80
2023/12/23 09:05:28;;;;;;;;;;;11.20;87.90;;;;;;4995333;28;19909;-81
2023/12/23 09:07:54;;;;;;;;;;;11.20;88.20;;;;;;4994965;28;19963;-81
2023/12/23 09:10:19;;;;;;;;;;;11.20;88.00;;;;;;4995101;28;20059;-80
2023/12/23 09:12:45;;;;;;;;;;;11.30;88.20;;;;;;4997737;28;20068;-81
2023/12/23 09:15:10;;;;;;;;;;;11.10;88.10;;;;;;4998880;28;19921;-79
2023/12/23 09:17:36;;;;;;;;;;;11.20;88.20;;;;;;4996671;28;19928;-81
2023/12/23 09:20:04;;;;;;;;;;;11.30;88.30;;;;;;4997973;28;19949;-81
2023/12/23 09:22:30;;;;;;;;;;;11.20;88.30;;;;;;4997118;28;19914;-81
2023/12/23 09:24:55;;;;;;;;;;;11.30;88.40;;;;;;4997841;28;20008;-81
2023/12/23 09:27:20;;;;;;;;;;;11.30;88.40;;;;;;4998323;28;19909;-81
2023/12/23 09:29:46;;;;;;;;;;;11.30;88.20;;;;;;5003108;28;19910;-80
2023/12/23 09:32:12;;;;;;;;;;;11.20;88.30;;;;;;4994457;28;19917;-81
2023/12/23 09:34:37;;;;;;;;;;;11.20;88.20;;;;;;4996992;28;20297;-80
2023/12/23 09:37:03;;;;;;;;;;;11.30;88.40;;;;;;5004956;28;19913;-81
2023/12/23 09:39:28;;;;;;;;;;;11.10;88.20;;;;;;5016215;28;19958;-81
2023/12/23 09:41:54;;;;;;;;;;;11.30;88.40;;;;;;5017563;28;20048;-81
2023/12/23 09:44:20;;;;;;;;;;;11.30;88.30;;;;;;5011893;28;19916;-82
2023/12/23 09:46:46;;;;;;;;;;;11.30;88.20;;;;;;5003589;28;19909;-81
2023/12/23 09:49:11;;;;;;;;;;;11.30;88.30;;;;;;5001401;28;20416;-81
2023/12/23 09:51:36;;;;;;;;;;;11.30;88.40;;;;;;5008546;28;19916;-83
2023/12/23 09:54:03;;;;;;;;;;;11.10;88.30;;;;;;5002297;28;19909;-82
2023/12/23 09:56:29;;;;;;;;;;;11.20;88.70;;;;;;4998677;28;19917;-81
2023/12/23 09:58:54;;;;;;;;;;;11.20;88.50;;;;;;5014452;28;19957;-80
2023/12/23 10:01:20;;;;;;;;;;;11.30;88.60;;;;;;4996909;28;19914;-81
2023/12/23 10:03:47;;;;;;;;;;;11.20;88.80;;;;;;4997955;28;19945;-81
2023/12/23 10:06:16;;;;;;;;;;;11.30;88.60;;;;;;4992591;28;20008;-80
2023/12/23 10:08:41;;;;;;;;;;;11.30;88.60;;;;;;4996191;28;19910;-80
2023/12/23 10:11:07;;;;;;;;;;;11.30;88.70;;;;;;4997183;28;20059;-81
2023/12/23 10:13:32;;;;;;;;;;;11.30;88.60;;;;;;4994676;28;19916;-80
2023/12/23 10:15:58;;;;;;;;;;;11.30;88.70;;;;;;4995225;28;19913;-81
2023/12/23 10:18:24;;;;;;;;;;;11.30;88.80;;;;;;4997723;28;19924;-80
2023/12/23 10:20:49;;;;;;;;;;;11.30;88.60;;;;;;5013824;28;20000;-81
2023/12/23 10:23:15;;;;;;;;;;;11.20;88.60;;;;;;4995764;28;19910;-79
2023/12/23 10:25:40;;;;;;;;;;;11.20;88.60;;;;;;5012962;28;19916;-80
2023/12/23 10:28:06;;;;;;;;;;;11.30;88.60;;;;;;4996090;28;19910;-81
2023/12/23 10:30:33;;;;;;;;;;;11.20;88.80;;;;;;5015470;28;19920;-81
2023/12/23 10:33:04;;;;;;;;;;;11.30;88.70;;;;;;5015810;28;19913;-81
2023/12/23 10:35:31;;;;;;;;;;;11.30;88.70;;;;;;5015368;28;20369;-80
2023/12/23 10:37:58;;;;;;;;;;;11.20;88.70;;;;;;5002709;28;19910;-80
2023/12/23 10:40:25;;;;;;;;;;;11.20;88.70;;;;;;4997456;28;19910;-80
2023/12/23 10:42:51;;;;;;;;;;;11.30;88.80;;;;;;5017031;28;20004;-80
2023/12/23 10:45:18;;;;;;;;;;;11.30;88.90;;;;;;4999280;28;19910;-80
2023/12/23 10:47:44;;;;;;;;;;;11.20;88.90;;;;;;4998871;28;20012;-80
2023/12/23 10:50:09;;;;;;;;;;;11.20;88.90;;;;;;4998932;28;19983;-80
2023/12/23 10:52:35;;;;;;;;;;;11.20;88.90;;;;;;4999141;28;19910;-80
2023/12/23 10:55:01;;;;;;;;;;;11.20;89.10;;;;;;4998706;28;19920;-81
2023/12/23 10:57:28;;;;;;;;;;;11.20;88.90;;;;;;5016240;28;19909;-80
2023/12/23 10:59:53;;;;;;;;;;;11.20;88.90;;;;;;4998691;28;19972;-80
2023/12/23 11:02:22;;;;;;;;;;;11.30;89.00;;;;;;4999005;28;20377;-81
2023/12/23 11:04:49;;;;;;;;;;;11.20;88.90;;;;;;4998908;28;20432;-80
2023/12/23 11:07:16;;;;;;;;;;;11.20;89.00;;;;;;4998380;28;19960;-81
2023/12/23 11:09:42;;;;;;;;;;;11.20;89.00;;;;;;4998456;28;19945;-80
2023/12/23 11:12:08;;;;;;;;;;;11.20;89.10;;;;;;4998341;28;19909;-80
2023/12/23 11:14:35;;;;;;;;;;;11.20;89.00;;;;;;4998301;28;19968;-81
2023/12/23 11:17:00;;;;;;;;;;;11.20;89.00;;;;;;5015735;28;19968;-80
2023/12/23 11:19:26;;;;;;;;;;;11.20;89.00;;;;;;4998471;28;20336;-80
2023/12/23 11:22:11;;;;;;;;;;;11.20;88.90;;;;;;4998475;28;20340;-80
2023/12/23 11:24:36;;;;;;;;;;;11.20;89.20;;;;;;4998249;28;20297;-81
2023/12/23 11:27:02;;;;;;;;;;;11.30;89.10;;;;;;4998243;28;19917;-81
2023/12/23 11:29:27;;;;;;;;;;;11.20;89.10;;;;;;4998763;28;19960;-80
2023/12/23 11:32:08;;;;;;;;;;;11.20;89.10;;;;;;4998017;28;19967;-79
2023/12/23 11:34:34;;;;;;;;;;;11.20;89.10;;;;;;4999319;28;19921;-80
2023/12/23 11:36:59;;;;;;;;;;;11.20;89.30;;;;;;4998192;28;19914;-79
2023/12/23 11:39:25;;;;;;;;;;;11.20;89.10;;;;;;4997784;28;19913;-80
2023/12/23 11:41:50;;;;;;;;;;;11.10;89.20;;;;;;4997608;28;19909;-79
2023/12/23 11:44:16;;;;;;;;;;;11.20;89.10;;;;;;4998453;28;19914;-80
2023/12/23 11:46:42;;;;;;;;;;;11.20;89.30;;;;;;4995864;28;20294;-79
2023/12/23 11:49:08;;;;;;;;;;;11.20;89.20;;;;;;4996741;28;19914;-78
2023/12/23 11:51:34;;;;;;;;;;;11.20;89.00;;;;;;4996360;28;19909;-80
2023/12/23 11:54:00;;;;;;;;;;;11.20;89.00;;;;;;4997086;28;19913;-78
2023/12/23 11:56:25;;;;;;;;;;;11.20;89.20;;;;;;4997382;28;20382;-79
2023/12/23 11:58:51;;;;;;;;;;;11.20;89.10;;;;;;4997542;28;19961;-80
2023/12/23 12:01:17;;;;;;;;;;;11.20;89.20;;;;;;4997421;28;19967;-79
2023/12/23 12:03:42;;;;;;;;;;;11.20;89.10;;;;;;4997266;28;20386;-79
2023/12/23 12:06:08;;;;;;;;;;;11.10;89.10;;;;;;4996507;28;19909;-80
2023/12/23 12:08:33;;;;;;;;;;;11.20;89.40;;;;;;4995764;28;19913;-80
2023/12/23 12:10:59;;;;;;;;;;;11.20;89.10;;;;;;5013314;28;20316;-80
2023/12/23 12:13:28;;;;;;;;;;;11.20;89.10;;;;;;5013167;28;19916;-80
2023/12/23 12:15:54;;;;;;;;;;;11.20;89.10;;;;;;4994915;28;19921;-79
2023/12/23 12:18:19;;;;;;;;;;;11.20;89.10;;;;;;4995012;28;19917;-80
2023/12/23 12:20:45;;;;;;;;;;;11.20;89.10;;;;;;4995410;28;19913;-80
2023/12/23 12:23:10;;;;;;;;;;;11.20;89.00;;;;;;4987457;28;19914;-81
2023/12/23 12:25:36;;;;;;;;;;;11.20;89.00;;;;;;4993634;28;20372;-79
2023/12/23 12:28:01;;;;;;;;;;;11.20;89.00;;;;;;4992381;28;19924;-80
2023/12/23 12:30:27;;;;;;;;;;;11.20;89.00;;;;;;4995011;28;19920;-80
2023/12/23 12:32:52;;;;;;;;;;;11.10;88.90;;;;;;4995001;28;19971;-79
2023/12/23 12:35:18;;;;;;;;;;;11.10;88.90;;;;;;4994922;28;19914;-80
2023/12/23 12:37:43;;;;;;;;;;;11.20;89.10;;;;;;4995016;28;19909;-80
2023/12/23 12:40:10;;;;;;;;;;;11.20;89.00;;;;;;4996015;28;19909;-80
2023/12/23 12:42:35;;;;;;;;;;;11.20;89.00;;;;;;4995922;28;19909;-80
2023/12/23 12:45:02;;;;;;;;;;;11.20;89.00;;;;;;4995555;28;19917;-80
2023/12/23 12:47:28;;;;;;;;;;;11.20;89.00;;;;;;4995354;28;20285;-80
2023/12/23 12:49:58;;;;;;;;;;;11.20;89.10;;;;;;4995829;28;19910;-80
2023/12/23 12:52:23;;;;;;;;;;;11.20;89.00;;;;;;4995270;28;19913;-80
2023/12/23 12:54:49;;;;;;;;;;;11.20;89.10;;;;;;4995417;28;20336;-80
2023/12/23 12:57:14;;;;;;;;;;;11.20;88.90;;;;;;4995328;28;19909;-80
2023/12/23 12:59:40;;;;;;;;;;;11.20;89.00;;;;;;4995786;28;19917;-80
2023/12/23 13:02:06;;;;;;;;;;;11.20;89.00;;;;;;5011794;28;19920;-80
2023/12/23 13:04:31;;;;;;;;;;;11.20;89.00;;;;;;4995676;28;19916;-80
2023/12/23 13:06:57;;;;;;;;;;;11.20;89.00;;;;;;4995524;28;19913;-80
2023/12/23 13:09:22;;;;;;;;;;;11.10;89.00;;;;;;4995259;28;19921;-81
2023/12/23 13:11:48;;;;;;;;;;;11.20;89.00;;;;;;4995221;28;19910;-80
2023/12/23 13:14:14;;;;;;;;;;;11.10;88.90;;;;;;5013150;28;19910;-80
2023/12/23 13:16:40;;;;;;;;;;;11.20;89.00;;;;;;4994780;28;19918;-79
2023/12/23 13:19:06;;;;;;;;;;;11.10;89.00;;;;;;4995248;28;19909;-80
2023/12/23 13:21:31;;;;;;;;;;;11.20;89.20;;;;;;4995364;28;20372;-80
2023/12/23 13:23:57;;;;;;;;;;;11.10;89.10;;;;;;4995335;28;19913;-80
2023/12/23 13:26:22;;;;;;;;;;;11.20;89.10;;;;;;5012534;28;19917;-80
2023/12/23 13:28:48;;;;;;;;;;;11.10;89.00;;;;;;4995516;28;19921;-80
2023/12/23 13:31:13;;;;;;;;;;;11.10;89.10;;;;;;4995684;28;19910;-80
2023/12/23 13:33:39;;;;;;;;;;;11.10;89.00;;;;;;5012556;28;19916;-80
2023/12/23 13:36:06;;;;;;;;;;;11.20;89.10;;;;;;4994445;28;19924;-80
2023/12/23 13:38:31;;;;;;;;;;;11.20;89.10;;;;;;4994805;28;19935;-80
2023/12/23 13:40:56;;;;;;;;;;;11.10;89.00;;;;;;4994415;28;19917;-80
2023/12/23 13:43:22;;;;;;;;;;;11.10;89.10;;;;;;4992890;28;19944;-80
2023/12/23 13:45:48;;;;;;;;;;;11.20;89.10;;;;;;5012419;28;20324;-79
2023/12/23 13:48:14;;;;;;;;;;;11.20;89.20;;;;;;4995030;28;19916;-80
2023/12/23 13:50:39;;;;;;;;;;;11.10;89.10;;;;;;4994886;28;20270;-81
2023/12/23 13:53:05;;;;;;;;;;;11.20;89.20;;;;;;4994649;28;19910;-80
2023/12/23 13:55:30;;;;;;;;;;;11.20;89.10;;;;;;4995359;28;19921;-81
2023/12/23 13:57:55;;;;;;;;;;;11.10;88.90;;;;;;4994514;28;19909;-80
2023/12/23 14:00:21;;;;;;;;;;;11.20;89.00;;;;;;4996755;28;19914;-81
2023/12/23 14:02:46;;;;;;;;;;;11.10;89.00;;;;;;4995242;28;20005;-80
2023/12/23 14:05:12;;;;;;;;;;;11.20;89.00;;;;;;4995417;28;19913;-81
2023/12/23 14:07:37;;;;;;;;;;;11.10;88.90;;;;;;4993880;28;19913;-80
2023/12/23 14:10:03;;;;;;;;;;;11.20;89.00;;;;;;4994089;28;19932;-79
2023/12/23 14:12:28;;;;;;;;;;;11.10;89.00;;;;;;4995080;28;19917;-79
2023/12/23 14:14:54;;;;;;;;;;;11.10;89.00;;;;;;4997704;28;19920;-79
2023/12/23 14:17:19;;;;;;;;;;;11.20;89.00;;;;;;4997067;28;19918;-80
2023/12/23 14:19:44;;;;;;;;;;;11.20;89.00;;;;;;5015202;28;20297;-78
2023/12/23 14:22:10;;;;;;;;;;;11.10;88.90;;;;;;4998093;28;19910;-81
2023/12/23 14:24:35;;;;;;;;;;;11.20;89.00;;;;;;5015558;28;19956;-77
2023/12/23 14:27:01;;;;;;;;;;;11.20;88.90;;;;;;4996523;28;20016;-79
2023/12/23 14:29:26;;;;;;;;;;;11.20;89.00;;;;;;4998361;28;20400;-78
2023/12/23 14:31:52;;;;;;;;;;;11.10;88.90;;;;;;4998212;28;20052;-79
2023/12/23 14:34:17;;;;;;;;;;;11.20;89.00;;;;;;4994197;28;19972;-78
2023/12/23 14:36:48;;;;;;;;;;;11.20;89.00;;;;;;4998750;28;20012;-79
2023/12/23 14:39:14;;;;;;;;;;;11.20;89.00;;;;;;4996510;28;19910;-77
2023/12/23 14:41:40;;;;;;;;;;;11.20;89.00;;;;;;4997747;28;19960;-79
2023/12/23 14:44:10;;;;;;;;;;;11.20;89.00;;;;;;4996938;28;20381;-79
2023/12/23 14:46:36;;;;;;;;;;;11.10;89.00;;;;;;4997415;28;19910;-79
2023/12/23 14:49:01;;;;;;;;;;;11.20;89.10;;;;;;4996878;28;20297;-79
2023/12/23 14:51:27;;;;;;;;;;;11.10;88.90;;;;;;5014986;28;19916;-79
2023/12/23 14:53:53;;;;;;;;;;;11.10;88.90;;;;;;4996815;28;20409;-79